createdAt,value
2022-10-30T00:00:50.600Z,7.40
2022-10-30T00:03:18.055Z,7.50
2022-10-30T00:05:47.144Z,7.90
2022-10-30T00:08:15.953Z,7.40
2022-10-30T00:10:43.740Z,7.40
2022-10-30T00:13:11.446Z,7.70
2022-10-30T00:15:39.046Z,6.83
2022-10-30T00:18:06.017Z,7.50
2022-10-30T00:20:32.986Z,8.00
2022-10-30T00:23:00.178Z,7.00
2022-10-30T00:25:27.298Z,6.80
2022-10-30T00:27:54.095Z,7.67
2022-10-30T00:30:20.925Z,8.40
2022-10-30T00:32:47.715Z,7.73
2022-10-30T00:35:14.692Z,7.97
2022-10-30T00:37:41.474Z,7.50
2022-10-30T00:40:09.956Z,8.53
2022-10-30T00:42:36.762Z,8.23
2022-10-30T00:45:03.731Z,8.30
2022-10-30T00:47:37.748Z,7.50
2022-10-30T00:50:12.398Z,7.40
2022-10-30T00:52:45.761Z,7.53
2022-10-30T00:55:18.517Z,7.13
2022-10-30T00:57:46.718Z,9.43
2022-10-30T01:00:15.014Z,7.17
2022-10-30T01:02:44.026Z,7.40
2022-10-30T01:05:15.790Z,8.00
2022-10-30T01:07:42.614Z,7.33
2022-10-30T01:10:11.172Z,7.73
2022-10-30T01:12:39.236Z,7.57
2022-10-30T01:15:07.357Z,7.67
2022-10-30T01:17:59.524Z,9.00
2022-10-30T01:20:59.021Z,9.80
2022-10-30T01:23:34.611Z,7.50
2022-10-30T01:26:38.492Z,8.33
2022-10-30T01:29:05.248Z,7.90
2022-10-30T01:31:54.742Z,8.20
2022-10-30T01:34:44.521Z,8.80
2022-10-30T01:37:32.737Z,8.67
2022-10-30T01:40:13.257Z,8.73
2022-10-30T01:42:52.168Z,8.57
2022-10-30T01:45:56.650Z,9.27
2022-10-30T01:48:35.494Z,9.80
2022-10-30T01:51:14.261Z,9.13
2022-10-30T01:53:52.949Z,8.80
2022-10-30T01:56:38.552Z,8.17
2022-10-30T01:59:26.189Z,8.67
2022-10-30T02:01:53.311Z,9.17
2022-10-30T02:04:20.584Z,9.20
2022-10-30T02:06:47.633Z,8.40
2022-10-30T02:09:18.146Z,9.23
2022-10-30T02:11:47.797Z,10.80
2022-10-30T02:14:18.331Z,9.73
2022-10-30T02:16:50.326Z,9.10
2022-10-30T02:19:17.835Z,8.32
2022-10-30T02:21:44.811Z,8.60
2022-10-30T02:24:11.591Z,9.05
2022-10-30T02:26:39.062Z,8.40
2022-10-30T02:29:05.890Z,8.33
2022-10-30T02:31:32.705Z,8.55
2022-10-30T02:33:59.505Z,7.90
2022-10-30T02:36:26.350Z,8.82
2022-10-30T02:38:55.135Z,8.67
2022-10-30T02:41:23.133Z,8.00
2022-10-30T02:43:52.012Z,9.10
2022-10-30T02:46:19.112Z,8.50
2022-10-30T02:48:45.940Z,8.15
2022-10-30T02:51:12.788Z,9.23
2022-10-30T02:53:40.017Z,8.52
2022-10-30T02:56:09.729Z,8.45
2022-10-30T02:58:36.959Z,8.05
2022-10-30T03:01:09.676Z,8.68
2022-10-30T03:03:37.019Z,7.68
2022-10-30T03:06:05.614Z,8.65
2022-10-30T03:08:32.519Z,8.83
2022-10-30T03:11:04.689Z,7.13
2022-10-30T03:13:32.854Z,8.10
2022-10-30T03:16:01.689Z,8.27
2022-10-30T03:18:28.511Z,8.97
2022-10-30T03:21:00.265Z,7.72
2022-10-30T03:23:28.093Z,8.95
2022-10-30T03:25:56.319Z,8.60
2022-10-30T03:28:24.850Z,7.60
2022-10-30T03:30:57.901Z,8.75
2022-10-30T03:33:24.711Z,8.38
2022-10-30T03:35:51.551Z,8.60
2022-10-30T03:38:18.457Z,7.75
2022-10-30T03:40:45.294Z,8.40
2022-10-30T03:43:12.159Z,7.80
2022-10-30T03:45:38.974Z,7.95
2022-10-30T03:48:06.787Z,8.48
2022-10-30T03:50:33.642Z,9.82
2022-10-30T03:53:00.543Z,7.85
2022-10-30T03:55:27.354Z,8.30
2022-10-30T03:57:54.185Z,8.00
2022-10-30T04:00:21.207Z,8.48
2022-10-30T04:02:49.609Z,9.00
2022-10-30T04:05:18.144Z,8.43
2022-10-30T04:07:44.964Z,8.20
2022-10-30T04:10:14.235Z,8.30
2022-10-30T04:12:41.891Z,8.73
2022-10-30T04:15:09.306Z,8.10
2022-10-30T04:17:36.124Z,9.18
2022-10-30T04:20:03.062Z,8.55
2022-10-30T04:22:29.900Z,8.23
2022-10-30T04:24:56.667Z,8.63
2022-10-30T04:27:23.592Z,8.13
2022-10-30T04:29:50.366Z,8.82
2022-10-30T04:32:17.244Z,7.35
2022-10-30T04:34:44.056Z,8.00
2022-10-30T04:37:10.912Z,8.75
2022-10-30T04:39:41.028Z,7.50
2022-10-30T04:42:12.251Z,7.50
2022-10-30T04:44:39.073Z,8.20
2022-10-30T04:47:05.903Z,8.45
2022-10-30T04:49:32.734Z,7.50
2022-10-30T04:51:59.565Z,7.22
2022-10-30T04:54:27.472Z,7.50
2022-10-30T04:56:54.498Z,6.40
2022-10-30T04:59:21.303Z,7.80
2022-10-30T05:01:48.158Z,7.53
2022-10-30T05:04:15.094Z,7.80
2022-10-30T05:06:41.907Z,7.85
2022-10-30T05:09:08.707Z,7.97
2022-10-30T05:11:35.645Z,7.15
2022-10-30T05:14:02.551Z,8.57
2022-10-30T05:16:29.367Z,6.10
2022-10-30T05:18:56.176Z,6.70
2022-10-30T05:21:23.145Z,6.47
2022-10-30T05:23:50.025Z,6.20
2022-10-30T05:26:16.843Z,6.45
2022-10-30T05:28:43.683Z,6.07
2022-10-30T05:31:10.480Z,7.20
2022-10-30T05:33:37.296Z,6.07
2022-10-30T05:36:04.484Z,6.20
2022-10-30T05:38:31.299Z,6.63
2022-10-30T05:40:58.134Z,6.78
2022-10-30T05:43:24.971Z,6.10
2022-10-30T05:45:51.751Z,5.63
2022-10-30T05:48:18.623Z,5.78
2022-10-30T05:50:45.482Z,5.88
2022-10-30T05:53:12.369Z,6.63
2022-10-30T05:55:39.167Z,5.93
2022-10-30T05:58:07.135Z,5.60
2022-10-30T06:00:35.791Z,6.07
2022-10-30T06:03:04.920Z,6.43
2022-10-30T06:05:34.309Z,6.25
2022-10-30T06:08:02.224Z,5.47
2022-10-30T06:10:29.446Z,5.28
2022-10-30T06:13:07.050Z,6.32
2022-10-30T06:15:34.402Z,5.72
2022-10-30T06:18:01.658Z,5.80
2022-10-30T06:20:30.462Z,5.10
2022-10-30T06:23:05.816Z,6.00
2022-10-30T06:25:39.597Z,5.00
2022-10-30T06:28:09.409Z,5.90
2022-10-30T06:30:36.187Z,5.30
2022-10-30T06:33:04.957Z,6.00
2022-10-30T06:35:31.909Z,5.67
2022-10-30T06:38:00.464Z,5.13
2022-10-30T06:40:29.951Z,5.57
2022-10-30T06:42:57.452Z,6.83
2022-10-30T06:45:25.091Z,5.60
2022-10-30T06:47:52.298Z,6.60
2022-10-30T06:50:22.095Z,6.20
2022-10-30T06:52:49.610Z,5.40
2022-10-30T06:55:17.112Z,5.90
2022-10-30T06:57:43.988Z,5.47
2022-10-30T07:00:11.413Z,6.27
2022-10-30T07:02:38.207Z,4.83
2022-10-30T07:05:05.303Z,5.20
2022-10-30T07:07:32.304Z,5.13
2022-10-30T07:09:59.166Z,4.60
2022-10-30T07:12:25.989Z,4.93
2022-10-30T07:14:52.834Z,5.30
2022-10-30T07:17:19.652Z,4.13
2022-10-30T07:19:46.465Z,5.23
2022-10-30T07:22:13.262Z,4.47
2022-10-30T07:24:40.062Z,5.00
2022-10-30T07:27:06.931Z,5.27
2022-10-30T07:29:33.769Z,4.57
2022-10-30T07:32:03.970Z,5.00
2022-10-30T07:34:31.330Z,4.47
2022-10-30T07:36:58.178Z,5.20
2022-10-30T07:39:24.980Z,4.30
2022-10-30T07:41:51.779Z,4.70
2022-10-30T07:44:18.657Z,4.50
2022-10-30T07:46:45.442Z,4.67
2022-10-30T07:49:12.297Z,4.80
2022-10-30T07:51:39.227Z,4.00
2022-10-30T07:54:06.051Z,4.87
2022-10-30T07:56:32.903Z,5.00
2022-10-30T07:58:59.701Z,4.67
2022-10-30T08:01:26.672Z,4.23
2022-10-30T08:03:53.586Z,4.10
2022-10-30T08:06:23.220Z,4.50
2022-10-30T08:08:53.225Z,3.93
2022-10-30T08:11:20.038Z,4.23
2022-10-30T08:13:47.034Z,3.93
2022-10-30T08:16:14.655Z,4.47
2022-10-30T08:18:42.708Z,5.10
2022-10-30T08:21:10.155Z,4.57
2022-10-30T08:23:37.236Z,4.30
2022-10-30T08:26:05.464Z,3.70
2022-10-30T08:28:33.310Z,4.30
2022-10-30T08:31:01.170Z,4.20
2022-10-30T08:33:28.517Z,3.80
2022-10-30T08:35:57.542Z,4.07
2022-10-30T08:38:24.755Z,4.20
2022-10-30T08:40:52.023Z,4.10
2022-10-30T08:43:19.186Z,4.17
2022-10-30T08:45:46.028Z,3.63
2022-10-30T08:48:15.366Z,4.57
2022-10-30T08:50:42.391Z,4.20
2022-10-30T08:53:12.400Z,4.53
2022-10-30T08:55:39.358Z,3.03
2022-10-30T08:58:06.210Z,4.37
2022-10-30T09:00:33.205Z,3.87
2022-10-30T09:03:00.462Z,3.70
2022-10-30T09:05:27.647Z,3.67
2022-10-30T09:08:02.168Z,3.53
2022-10-30T09:10:29.857Z,3.40
2022-10-30T09:13:02.502Z,3.70
2022-10-30T09:15:29.696Z,3.50
2022-10-30T09:18:02.247Z,3.50
2022-10-30T09:20:30.515Z,4.00
2022-10-30T09:22:57.850Z,3.60
2022-10-30T09:25:25.150Z,4.70
2022-10-30T09:27:51.978Z,3.80
2022-10-30T09:30:18.842Z,3.40
2022-10-30T09:32:46.678Z,3.10
2022-10-30T09:35:14.931Z,4.13
2022-10-30T09:37:41.811Z,3.33
2022-10-30T09:40:11.486Z,3.50
2022-10-30T09:42:43.616Z,3.77
2022-10-30T09:45:29.974Z,3.60
2022-10-30T09:48:39.523Z,3.90
2022-10-30T09:51:13.380Z,3.90
2022-10-30T09:53:40.158Z,3.63
2022-10-30T09:56:18.030Z,4.00
2022-10-30T09:59:14.990Z,4.30
2022-10-30T10:02:15.292Z,3.60
2022-10-30T10:04:45.084Z,3.87
2022-10-30T10:07:33.190Z,3.77
2022-10-30T10:10:07.023Z,3.40
2022-10-30T10:12:46.543Z,4.30
2022-10-30T10:15:38.671Z,3.50
2022-10-30T10:18:14.581Z,3.30
2022-10-30T10:20:45.459Z,3.57
2022-10-30T10:23:25.057Z,4.00
2022-10-30T10:25:54.437Z,3.80
2022-10-30T10:28:48.935Z,3.63
2022-10-30T10:31:23.861Z,3.90
2022-10-30T10:33:59.690Z,3.20
2022-10-30T10:36:55.406Z,3.60
2022-10-30T10:39:46.468Z,4.20
2022-10-30T10:42:40.189Z,4.30
2022-10-30T10:45:27.958Z,3.97
2022-10-30T10:48:16.597Z,4.43
2022-10-30T10:50:57.500Z,4.30
2022-10-30T10:53:45.532Z,4.47
2022-10-30T10:56:13.745Z,3.53
2022-10-30T10:58:55.423Z,3.93
2022-10-30T11:01:36.871Z,3.67
2022-10-30T11:04:12.872Z,4.30
2022-10-30T11:06:43.750Z,3.90
2022-10-30T11:09:16.577Z,3.37
2022-10-30T11:11:49.242Z,4.37
2022-10-30T11:14:19.523Z,3.73
2022-10-30T11:16:58.355Z,3.50
2022-10-30T11:19:25.590Z,3.57
2022-10-30T11:21:55.340Z,4.00
2022-10-30T11:24:34.315Z,4.07
2022-10-30T11:27:26.799Z,3.10
2022-10-30T11:29:56.411Z,3.83
2022-10-30T11:32:28.001Z,3.50
2022-10-30T11:35:10.140Z,3.70
2022-10-30T11:37:39.394Z,3.80
2022-10-30T11:40:12.208Z,3.53
2022-10-30T11:42:42.805Z,4.10
2022-10-30T11:45:16.208Z,3.53
2022-10-30T11:47:44.709Z,3.80
2022-10-30T11:50:19.439Z,3.80
2022-10-30T11:52:48.052Z,3.80
2022-10-30T11:55:17.450Z,3.70
2022-10-30T11:57:50.124Z,3.50
2022-10-30T12:00:21.391Z,3.87
2022-10-30T12:02:54.708Z,4.63
2022-10-30T12:05:27.623Z,3.73
2022-10-30T12:08:12.732Z,3.30
2022-10-30T12:10:59.732Z,3.63
2022-10-30T12:13:28.280Z,3.70
2022-10-30T12:16:06.589Z,4.30
2022-10-30T12:18:34.343Z,4.57
2022-10-30T12:21:03.311Z,4.17
2022-10-30T12:23:30.859Z,4.70
2022-10-30T12:26:17.950Z,4.03
2022-10-30T12:28:55.289Z,3.60
2022-10-30T12:31:33.431Z,3.40
2022-10-30T12:34:25.237Z,3.53
2022-10-30T12:37:04.922Z,3.33
2022-10-30T12:40:20.535Z,3.10
2022-10-30T12:43:28.747Z,3.60
2022-10-30T12:46:06.815Z,3.80
2022-10-30T12:48:40.667Z,3.37
2022-10-30T12:51:26.320Z,3.07
2022-10-30T12:53:53.083Z,2.70
2022-10-30T12:56:25.061Z,3.03
2022-10-30T12:59:16.658Z,3.27
2022-10-30T13:01:54.660Z,3.40
2022-10-30T13:04:39.797Z,3.77
2022-10-30T13:07:47.483Z,3.40
2022-10-30T13:10:31.529Z,3.20
2022-10-30T13:13:05.329Z,3.70
2022-10-30T13:15:42.224Z,3.27
2022-10-30T13:18:19.855Z,3.40
2022-10-30T13:21:01.180Z,3.50
2022-10-30T13:23:38.453Z,3.40
2022-10-30T13:26:37.030Z,3.37
2022-10-30T13:29:09.732Z,3.50
2022-10-30T13:32:04.202Z,3.43
2022-10-30T13:34:58.652Z,3.83
2022-10-30T13:37:36.043Z,3.50
2022-10-30T13:40:14.677Z,3.80
2022-10-30T13:42:50.496Z,4.07
2022-10-30T13:45:35.831Z,3.90
2022-10-30T13:48:02.586Z,3.70
2022-10-30T13:50:55.360Z,3.60
2022-10-30T13:53:26.908Z,3.70
2022-10-30T13:55:56.439Z,3.60
2022-10-30T13:58:26.176Z,3.60
2022-10-30T14:01:25.586Z,3.27
2022-10-30T14:04:02.746Z,3.97
2022-10-30T14:06:59.995Z,3.40
2022-10-30T14:09:49.594Z,3.77
2022-10-30T14:12:54.281Z,3.50
2022-10-30T14:15:31.946Z,4.10
2022-10-30T14:18:14.059Z,3.50
2022-10-30T14:20:42.795Z,3.90
2022-10-30T14:23:24.420Z,3.60
2022-10-30T14:26:03.895Z,4.10
2022-10-30T14:28:35.298Z,3.70
2022-10-30T14:31:13.202Z,3.70
2022-10-30T14:33:39.942Z,3.70
2022-10-30T14:36:26.595Z,4.00
2022-10-30T14:39:03.479Z,3.90
2022-10-30T14:42:02.284Z,4.60
2022-10-30T14:45:05.676Z,4.13
2022-10-30T14:47:53.812Z,4.50
2022-10-30T14:50:49.631Z,5.30
2022-10-30T14:53:32.858Z,5.03
2022-10-30T14:56:14.640Z,5.50
2022-10-30T14:58:41.848Z,5.00
2022-10-30T15:01:11.546Z,4.80
2022-10-30T15:03:47.548Z,4.73
2022-10-30T15:06:31.388Z,4.93
2022-10-30T15:09:42.496Z,4.90
2022-10-30T15:12:24.391Z,4.20
2022-10-30T15:15:04.665Z,4.90
2022-10-30T15:17:37.645Z,5.20
2022-10-30T15:20:13.005Z,6.07
2022-10-30T15:22:40.883Z,6.00
2022-10-30T15:25:18.806Z,4.87
2022-10-30T15:27:48.036Z,5.57
2022-10-30T15:30:18.797Z,5.47
2022-10-30T15:32:45.639Z,5.00
2022-10-30T15:35:20.708Z,4.73
2022-10-30T15:38:07.995Z,5.07
2022-10-30T15:40:36.945Z,4.77
2022-10-30T15:43:06.665Z,5.53
2022-10-30T15:45:36.624Z,4.80
2022-10-30T15:48:27.755Z,4.53
2022-10-30T15:51:13.961Z,5.13
2022-10-30T15:53:44.565Z,5.30
2022-10-30T15:56:31.588Z,4.73
2022-10-30T15:59:04.434Z,5.60
2022-10-30T16:01:44.353Z,5.80
2022-10-30T16:04:19.585Z,4.97
2022-10-30T16:06:58.464Z,5.70
2022-10-30T16:09:26.671Z,6.00
2022-10-30T16:11:56.265Z,6.50
2022-10-30T16:14:27.751Z,6.27
2022-10-30T16:16:54.864Z,6.33
2022-10-30T16:19:29.213Z,5.30
2022-10-30T16:21:57.572Z,6.13
2022-10-30T16:24:34.182Z,6.10
2022-10-30T16:27:06.833Z,7.13
2022-10-30T16:29:34.679Z,5.60
2022-10-30T16:32:02.059Z,6.53
2022-10-30T16:34:37.188Z,6.90
2022-10-30T16:37:05.877Z,6.47
2022-10-30T16:39:33.899Z,6.97
2022-10-30T16:42:01.415Z,6.67
2022-10-30T16:44:30.414Z,6.63
2022-10-30T16:47:09.932Z,6.60
2022-10-30T16:49:37.952Z,5.60
2022-10-30T16:52:13.249Z,6.03
2022-10-30T16:54:46.547Z,6.23
2022-10-30T16:57:19.179Z,6.90
2022-10-30T16:59:51.817Z,7.47
2022-10-30T17:02:24.121Z,6.03
2022-10-30T17:04:58.531Z,7.63
2022-10-30T17:07:27.015Z,7.00
2022-10-30T17:09:56.969Z,7.23
2022-10-30T17:12:29.178Z,7.87
2022-10-30T17:15:16.255Z,8.00
2022-10-30T17:17:43.275Z,6.97
2022-10-30T17:20:28.280Z,8.63
2022-10-30T17:23:27.421Z,6.80
2022-10-30T17:25:55.373Z,8.67
2022-10-30T17:28:28.252Z,8.30
2022-10-30T17:30:55.511Z,7.40
2022-10-30T17:33:40.834Z,7.87
2022-10-30T17:36:08.819Z,8.30
2022-10-30T17:38:35.641Z,7.40
2022-10-30T17:41:03.603Z,8.07
2022-10-30T17:43:33.835Z,8.20
2022-10-30T17:46:01.126Z,8.00
2022-10-30T17:48:29.482Z,8.13
2022-10-30T17:50:56.333Z,7.77
2022-10-30T17:53:26.598Z,8.10
2022-10-30T17:56:11.132Z,9.40
2022-10-30T17:58:38.056Z,13.30
2022-10-30T18:01:05.122Z,11.80
2022-10-30T18:03:32.011Z,10.50
2022-10-30T18:06:02.185Z,11.67
2022-10-30T18:08:29.035Z,12.90
2022-10-30T18:10:55.817Z,12.00
2022-10-30T18:13:22.763Z,11.70
2022-10-30T18:15:56.127Z,10.90
2022-10-30T18:18:22.974Z,12.03
2022-10-30T18:20:49.996Z,14.90
2022-10-30T18:23:50.922Z,13.80
2022-10-30T18:26:16.813Z,15.47
2022-10-30T18:28:43.661Z,15.60
2022-10-30T18:31:15.397Z,13.70
2022-10-30T18:33:43.051Z,12.40
2022-10-30T18:36:14.983Z,14.47
2022-10-30T18:38:42.470Z,14.47
2022-10-30T18:41:36.534Z,12.67
2022-10-30T18:44:04.319Z,13.33
2022-10-30T18:46:32.644Z,15.07
2022-10-30T18:48:59.617Z,15.20
2022-10-30T18:51:28.355Z,13.70
2022-10-30T18:53:57.030Z,13.60
2022-10-30T18:56:28.611Z,11.00
2022-10-30T18:59:00.590Z,13.97
2022-10-30T19:01:32.033Z,13.20
2022-10-30T19:04:03.907Z,12.07
2022-10-30T19:06:34.320Z,12.20
2022-10-30T19:09:01.597Z,13.70
2022-10-30T19:11:31.372Z,11.77
2022-10-30T19:13:58.573Z,13.03
2022-10-30T19:16:25.788Z,13.00
2022-10-30T19:18:52.795Z,12.60
2022-10-30T19:21:22.185Z,12.90
2022-10-30T19:23:49.202Z,14.93
2022-10-30T19:26:17.410Z,12.90
2022-10-30T19:28:45.362Z,13.60
2022-10-30T19:31:17.680Z,14.57
2022-10-30T19:33:45.211Z,15.30
2022-10-30T19:36:31.877Z,15.33
